Time;durP1;ratioP1;P1;durP2;ratioP2;P2;SDS_P1;SDS_P2;PMS_P1;PMS_P2;Temp;Humidity;BMP_temperature;BMP_pressure;BME280_temperature;BME280_humidity;BME280_pressure;Samples;Min_cycle;Max_cycle;Signal;HPM_P1;HPM_P2
2023/10/25 00:02:19;;;;;;;15.05;9.35;;;7.10;99.90;;;;;;5070746;28;20033;-78
2023/10/25 00:04:45;;;;;;;12.68;9.40;;;7.10;99.90;;;;;;5070938;28;20528;-79
2023/10/25 00:07:11;;;;;;;13.48;10.77;;;7.20;99.90;;;;;;5070250;28;20021;-79
2023/10/25 00:09:37;;;;;;;20.10;10.95;;;7.20;99.90;;;;;;5070948;28;20103;-78
2023/10/25 00:12:03;;;;;;;18.40;11.32;;;7.10;99.90;;;;;;5052128;28;20090;-79
2023/10/25 00:14:28;;;;;;;15.75;10.45;;;7.10;99.90;;;;;;5070893;28;20032;-79
2023/10/25 00:16:54;;;;;;;15.18;10.50;;;6.90;99.90;;;;;;5051863;28;20021;-79
2023/10/25 00:19:20;;;;;;;12.85;9.35;;;6.90;99.90;;;;;;5070524;28;20028;-79
2023/10/25 00:21:46;;;;;;;11.57;8.02;;;6.90;99.90;;;;;;5070313;28;20119;-79
2023/10/25 00:24:11;;;;;;;10.10;7.95;;;6.90;99.90;;;;;;5069755;28;20450;-78
2023/10/25 00:26:37;;;;;;;9.93;7.53;;;6.80;99.90;;;;;;5070663;28;20025;-78
2023/10/25 00:29:03;;;;;;;13.80;8.43;;;6.70;99.90;;;;;;5069723;28;20391;-79
2023/10/25 00:31:29;;;;;;;13.68;8.90;;;6.80;99.90;;;;;;5070657;28;20036;-77
2023/10/25 00:33:55;;;;;;;10.85;7.85;;;6.80;99.90;;;;;;5070128;28;20029;-78
2023/10/25 00:36:21;;;;;;;11.25;8.32;;;6.80;99.90;;;;;;5070416;28;20040;-79
2023/10/25 00:38:46;;;;;;;10.82;8.25;;;6.70;99.90;;;;;;5070475;28;20086;-78
2023/10/25 00:41:12;;;;;;;11.65;9.55;;;6.80;99.90;;;;;;5069723;28;20613;-78
2023/10/25 00:43:38;;;;;;;16.55;11.52;;;6.80;99.90;;;;;;5074296;28;20056;-77
2023/10/25 00:46:15;;;;;;;16.90;11.77;;;6.80;99.90;;;;;;5074113;28;20028;-78
2023/10/25 00:48:45;;;;;;;20.35;11.23;;;6.70;99.90;;;;;;5074303;28;20028;-78
2023/10/25 00:51:12;;;;;;;12.82;9.27;;;6.70;99.90;;;;;;5073753;28;20452;-79
2023/10/25 00:53:40;;;;;;;10.02;7.88;;;6.60;99.90;;;;;;5074418;28;20412;-79
2023/10/25 00:56:09;;;;;;;13.60;7.60;;;6.50;99.90;;;;;;5073494;28;20091;-77
2023/10/25 00:58:35;;;;;;;10.98;8.65;;;6.60;99.90;;;;;;5074059;28;20060;-78
2023/10/25 01:01:01;;;;;;;14.63;10.73;;;6.50;99.90;;;;;;5073412;28;20033;-77
2023/10/25 01:03:27;;;;;;;14.90;11.40;;;6.60;99.90;;;;;;5073650;28;20442;-78
2023/10/25 01:05:53;;;;;;;11.27;9.07;;;6.50;99.90;;;;;;5073899;28;20024;-77
2023/10/25 01:08:20;;;;;;;14.52;9.88;;;6.50;99.90;;;;;;5073448;28;20159;-79
2023/10/25 01:10:50;;;;;;;18.05;10.63;;;6.50;99.90;;;;;;5073719;28;20412;-78
2023/10/25 01:13:17;;;;;;;19.83;11.40;;;6.40;99.90;;;;;;5055329;28;20032;-78
2023/10/25 01:15:43;;;;;;;14.40;10.30;;;6.50;99.90;;;;;;5074130;28;20036;-78
2023/10/25 01:18:09;;;;;;;9.93;8.52;;;6.40;99.90;;;;;;5072884;28;20020;-78
2023/10/25 01:20:36;;;;;;;19.23;11.73;;;6.50;99.90;;;;;;5073768;28;20128;-77
2023/10/25 01:23:01;;;;;;;17.85;10.60;;;6.40;99.90;;;;;;5072823;28;20043;-78
2023/10/25 01:25:27;;;;;;;18.48;11.52;;;6.40;99.90;;;;;;5073209;28;20493;-78
2023/10/25 01:27:53;;;;;;;18.45;11.70;;;6.50;99.90;;;;;;5073104;28;20025;-78
2023/10/25 01:30:19;;;;;;;14.32;9.57;;;6.40;99.90;;;;;;5072664;28;20020;-78
2023/10/25 01:32:44;;;;;;;11.32;9.23;;;6.50;99.90;;;;;;5073233;28;20029;-79
2023/10/25 01:35:10;;;;;;;15.02;10.63;;;6.60;99.90;;;;;;5072616;28;20093;-79
2023/10/25 01:37:36;;;;;;;11.43;8.50;;;6.60;99.90;;;;;;5072575;28;20038;-79
2023/10/25 01:40:04;;;;;;;12.02;9.15;;;6.60;99.90;;;;;;5072656;28;20024;-79
2023/10/25 01:42:30;;;;;;;14.95;9.90;;;6.80;99.90;;;;;;5073235;28;20104;-78
2023/10/25 01:44:56;;;;;;;17.85;9.73;;;6.90;99.90;;;;;;5072917;28;20052;-78
2023/10/25 01:47:21;;;;;;;15.02;9.40;;;6.90;99.90;;;;;;5054598;28;20034;-78
2023/10/25 01:49:47;;;;;;;8.60;7.10;;;6.90;99.90;;;;;;5072489;28;20078;-78
2023/10/25 01:52:13;;;;;;;14.38;9.35;;;7.00;99.90;;;;;;5071615;28;20032;-79
2023/10/25 01:54:40;;;;;;;12.23;9.10;;;7.10;99.90;;;;;;5072851;28;20067;-78
2023/10/25 01:57:06;;;;;;;14.98;9.50;;;7.10;99.90;;;;;;5076987;28;20040;-78
2023/10/25 01:59:32;;;;;;;11.88;9.10;;;7.10;99.90;;;;;;5075818;28;20036;-78
2023/10/25 02:01:58;;;;;;;18.13;10.80;;;7.20;99.90;;;;;;5072004;28;20024;-78
2023/10/25 02:04:23;;;;;;;16.20;10.85;;;7.20;99.90;;;;;;5072647;28;20101;-78
2023/10/25 02:06:51;;;;;;;19.02;12.57;;;7.40;99.90;;;;;;5072597;28;20025;-78
2023/10/25 02:09:18;;;;;;;17.17;11.32;;;7.40;99.90;;;;;;5071798;28;20435;-77
2023/10/25 02:11:44;;;;;;;12.43;9.45;;;7.40;99.90;;;;;;5072031;28;20078;-77
2023/10/25 02:14:09;;;;;;;11.00;9.68;;;7.50;99.90;;;;;;5071761;28;20033;-77
2023/10/25 02:16:35;;;;;;;15.25;10.60;;;7.50;99.90;;;;;;5054064;28;20489;-78
2023/10/25 02:19:01;;;;;;;14.93;10.25;;;7.70;99.90;;;;;;5071538;28;20067;-78
2023/10/25 02:21:27;;;;;;;12.70;9.80;;;7.60;99.90;;;;;;5072084;28;20124;-78
2023/10/25 02:23:53;;;;;;;14.40;9.60;;;7.70;99.90;;;;;;5072123;28;20100;-78
2023/10/25 02:26:19;;;;;;;14.65;9.77;;;7.80;99.90;;;;;;5072149;28;20055;-88
2023/10/25 02:28:48;;;;;;;14.68;9.45;;;7.70;99.90;;;;;;5073915;28;20028;-87
2023/10/25 02:31:22;;;;;;;14.25;10.30;;;7.90;99.90;;;;;;5077874;28;20124;-86
2023/10/25 02:33:48;;;;;;;24.02;13.55;;;7.80;99.90;;;;;;5064885;28;20032;-86
2023/10/25 02:36:14;;;;;;;19.80;12.68;;;7.70;99.90;;;;;;5073603;28;20029;-81
2023/10/25 02:38:39;;;;;;;17.13;12.40;;;7.80;99.90;;;;;;5071738;28;20043;-80
2023/10/25 02:41:05;;;;;;;15.60;11.13;;;7.80;99.90;;;;;;5071212;28;20177;-78
2023/10/25 02:43:31;;;;;;;14.48;11.13;;;7.80;99.90;;;;;;5071707;28;20600;-78
2023/10/25 02:46:07;;;;;;;13.95;11.45;;;7.80;99.90;;;;;;5054113;28;20039;-77
2023/10/25 02:48:33;;;;;;;21.52;13.20;;;7.70;99.90;;;;;;5071986;28;20085;-78
2023/10/25 02:50:59;;;;;;;11.48;9.32;;;7.70;99.90;;;;;;5071845;28;20028;-78
2023/10/25 02:53:25;;;;;;;16.65;11.90;;;7.70;99.90;;;;;;5071127;28;20029;-76
2023/10/25 02:55:58;;;;;;;16.80;11.60;;;7.80;99.90;;;;;;5071383;28;20029;-76
2023/10/25 02:58:23;;;;;;;15.90;9.93;;;7.70;99.90;;;;;;5071323;28;20132;-77
2023/10/25 03:00:49;;;;;;;12.93;9.07;;;7.80;99.90;;;;;;5071134;28;20068;-77
2023/10/25 03:03:15;;;;;;;15.70;10.48;;;7.70;99.90;;;;;;5052899;28;20383;-76
2023/10/25 03:05:41;;;;;;;14.25;10.02;;;7.70;99.90;;;;;;5071129;28;20024;-77
2023/10/25 03:08:06;;;;;;;10.93;9.60;;;7.70;99.90;;;;;;5070937;28;20076;-77
2023/10/25 03:10:32;;;;;;;13.05;10.43;;;7.80;99.90;;;;;;5074479;28;20060;-78
2023/10/25 03:12:59;;;;;;;11.18;8.82;;;7.70;99.90;;;;;;5077706;28;20063;-77
2023/10/25 03:15:24;;;;;;;19.45;12.55;;;7.80;99.90;;;;;;5076677;28;20029;-77
2023/10/25 03:17:50;;;;;;;15.30;11.23;;;7.80;99.90;;;;;;5078583;28;20030;-77
2023/10/25 03:20:16;;;;;;;21.83;13.27;;;7.90;99.90;;;;;;5077964;28;20028;-77
2023/10/25 03:22:42;;;;;;;13.77;10.77;;;7.80;99.90;;;;;;5059006;28;20029;-78
2023/10/25 03:25:08;;;;;;;22.38;13.70;;;7.90;99.90;;;;;;5071213;28;20099;-78
2023/10/25 03:27:34;;;;;;;25.83;15.93;;;8.00;99.90;;;;;;5071413;28;20363;-78
2023/10/25 03:30:00;;;;;;;24.23;15.30;;;8.10;99.90;;;;;;5072234;28;20025;-77
2023/10/25 03:32:25;;;;;;;19.67;12.80;;;8.10;99.90;;;;;;5076622;28;20442;-77
2023/10/25 03:34:51;;;;;;;21.17;13.40;;;8.00;99.90;;;;;;5077086;28;20104;-77
2023/10/25 03:37:17;;;;;;;21.02;14.10;;;8.00;99.90;;;;;;5070541;28;20100;-78
2023/10/25 03:39:43;;;;;;;20.75;14.23;;;8.20;99.90;;;;;;5070945;28;20028;-79
2023/10/25 03:42:09;;;;;;;18.73;13.25;;;8.10;99.90;;;;;;5071507;28;20119;-82
2023/10/25 03:44:34;;;;;;;20.30;14.60;;;8.20;99.90;;;;;;5071045;28;20459;-80
2023/10/25 03:47:00;;;;;;;22.83;14.75;;;8.20;99.90;;;;;;5070666;28;20166;-79
2023/10/25 03:49:26;;;;;;;22.27;14.43;;;8.10;99.90;;;;;;5070768;28;20028;-78
2023/10/25 03:51:52;;;;;;;22.48;15.38;;;8.10;99.90;;;;;;5070714;28;20383;-78
2023/10/25 03:54:18;;;;;;;23.05;15.82;;;8.10;99.90;;;;;;5070274;28;20025;-78
2023/10/25 03:56:44;;;;;;;22.83;14.38;;;8.20;99.90;;;;;;5052463;28;20356;-78
2023/10/25 03:59:11;;;;;;;24.98;15.25;;;8.10;99.90;;;;;;5070248;28;20027;-78
2023/10/25 04:01:38;;;;;;;15.07;12.05;;;8.10;99.90;;;;;;5070593;28;20116;-77
2023/10/25 04:04:03;;;;;;;23.20;15.48;;;8.00;99.90;;;;;;5070451;28;20024;-78
2023/10/25 04:06:29;;;;;;;21.40;13.77;;;8.20;99.90;;;;;;5070702;28;20024;-78
2023/10/25 04:08:55;;;;;;;22.33;14.65;;;8.10;99.90;;;;;;5070864;28;20439;-77
2023/10/25 04:11:20;;;;;;;17.17;12.63;;;8.20;99.90;;;;;;5069968;28;20028;-76
2023/10/25 04:13:46;;;;;;;18.77;12.60;;;8.10;99.90;;;;;;5070490;28;20029;-77
2023/10/25 04:16:12;;;;;;;18.05;13.57;;;8.00;99.90;;;;;;5069975;28;20103;-77
2023/10/25 04:18:38;;;;;;;20.40;12.93;;;8.10;99.90;;;;;;5070665;28;20028;-77
2023/10/25 04:21:09;;;;;;;17.30;12.05;;;8.20;99.90;;;;;;5070254;28;20029;-77
2023/10/25 04:23:36;;;;;;;17.30;12.90;;;8.10;99.90;;;;;;5070902;28;20029;-77
2023/10/25 04:26:12;;;;;;;13.55;10.95;;;8.20;99.90;;;;;;5070615;28;20032;-78
2023/10/25 04:28:41;;;;;;;15.40;10.32;;;8.10;99.90;;;;;;5070450;28;20025;-78
2023/10/25 04:31:08;;;;;;;13.40;10.32;;;8.10;99.90;;;;;;5052149;28;20360;-78
2023/10/25 04:33:34;;;;;;;17.58;11.88;;;8.20;99.90;;;;;;5070843;28;20071;-78
2023/10/25 04:36:00;;;;;;;17.27;12.55;;;8.00;99.90;;;;;;5070330;28;20107;-78
2023/10/25 04:38:25;;;;;;;20.38;13.93;;;8.10;99.90;;;;;;5069805;28;20400;-78
2023/10/25 04:40:52;;;;;;;17.00;12.25;;;8.00;99.90;;;;;;5070216;28;20108;-78
2023/10/25 04:43:18;;;;;;;20.77;13.27;;;7.90;99.90;;;;;;5069895;28;20112;-78
2023/10/25 04:45:44;;;;;;;19.95;12.77;;;7.90;99.90;;;;;;5052268;28;20174;-78
2023/10/25 04:48:10;;;;;;;32.17;14.57;;;7.80;99.90;;;;;;5052427;28;20025;-78
2023/10/25 04:50:37;;;;;;;45.22;16.33;;;7.80;99.90;;;;;;5070311;28;20032;-78
2023/10/25 04:53:03;;;;;;;90.15;20.02;;;7.80;99.90;;;;;;5070543;28;20021;-78
2023/10/25 04:55:36;;;;;;;20.67;15.48;;;7.80;99.90;;;;;;5069608;28;20501;-78
2023/10/25 04:58:03;;;;;;;19.58;14.68;;;7.60;99.90;;;;;;5069962;28;20107;-78
2023/10/25 05:00:29;;;;;;;23.38;14.98;;;7.70;99.90;;;;;;5069471;28;20121;-78
2023/10/25 05:02:56;;;;;;;20.75;14.90;;;7.50;99.90;;;;;;5070188;28;20029;-79
2023/10/25 05:05:22;;;;;;;49.55;18.92;;;7.50;99.90;;;;;;5070066;28;20032;-79
2023/10/25 05:07:48;;;;;;;36.42;15.88;;;7.50;99.90;;;;;;5070057;28;20029;-78
2023/10/25 05:10:14;;;;;;;29.38;15.05;;;7.50;99.90;;;;;;5069220;28;20464;-78
2023/10/25 05:12:45;;;;;;;134.18;23.67;;;7.40;99.90;;;;;;5070212;28;20047;-79
2023/10/25 05:15:18;;;;;;;61.85;18.10;;;7.40;99.90;;;;;;5071646;28;20029;-79
2023/10/25 05:17:47;;;;;;;149.70;24.27;;;7.40;99.90;;;;;;5073589;28;20033;-78
2023/10/25 05:20:14;;;;;;;62.10;18.58;;;7.30;99.90;;;;;;5070319;28;20119;-79
2023/10/25 05:22:42;;;;;;;95.45;20.60;;;7.40;99.90;;;;;;5070469;28;20024;-77
2023/10/25 05:25:09;;;;;;;63.92;18.55;;;7.40;99.90;;;;;;5053990;28;20060;-77
2023/10/25 05:27:36;;;;;;;76.93;18.63;;;7.30;99.90;;;;;;5071703;28;20062;-76
2023/10/25 05:30:04;;;;;;;126.75;24.27;;;7.30;99.90;;;;;;5073619;28;20031;-77
2023/10/25 05:32:45;;;;;;;54.95;15.63;;;7.30;99.90;;;;;;5072699;28;20589;-77
2023/10/25 05:35:12;;;;;;;82.82;18.55;;;7.20;99.90;;;;;;5075161;28;20491;-78
2023/10/25 05:37:37;;;;;;;152.07;27.52;;;7.20;99.90;;;;;;5074839;28;20054;-77
2023/10/25 05:40:04;;;;;;;64.20;19.95;;;7.20;99.90;;;;;;5077507;28;20021;-77
2023/10/25 05:42:35;;;;;;;88.43;20.88;;;7.20;99.90;;;;;;5054290;28;20025;-77
2023/10/25 05:45:01;;;;;;;88.55;20.08;;;7.10;99.90;;;;;;5073925;28;20021;-77
2023/10/25 05:47:27;;;;;;;199.70;32.17;;;7.10;99.90;;;;;;5072774;28;20031;-77
2023/10/25 05:49:53;;;;;;;174.60;25.13;;;7.20;99.90;;;;;;5073186;28;20436;-77
2023/10/25 05:52:20;;;;;;;77.00;17.27;;;7.10;99.90;;;;;;5072517;28;20033;-79
2023/10/25 05:54:46;;;;;;;74.55;18.60;;;7.10;99.90;;;;;;5073115;28;20104;-79
2023/10/25 05:57:13;;;;;;;43.47;16.75;;;7.00;99.90;;;;;;5072882;28;20098;-78
2023/10/25 05:59:40;;;;;;;42.20;16.77;;;7.00;99.90;;;;;;5072110;28;20434;-78
2023/10/25 06:02:17;;;;;;;57.63;17.60;;;7.00;99.90;;;;;;5073571;28;20040;-78
2023/10/25 06:04:43;;;;;;;62.28;20.27;;;6.90;99.90;;;;;;5073344;28;20020;-78
2023/10/25 06:07:10;;;;;;;68.35;22.27;;;6.80;99.90;;;;;;5072707;28;20422;-78
2023/10/25 06:09:37;;;;;;;63.00;20.73;;;6.70;99.90;;;;;;5075997;28;20146;-78
2023/10/25 06:12:04;;;;;;;31.98;16.45;;;6.70;99.90;;;;;;5038676;28;20431;-78
2023/10/25 06:14:31;;;;;;;38.55;18.92;;;6.70;99.90;;;;;;5076067;28;20060;-78
2023/10/25 06:17:00;;;;;;;30.20;16.30;;;6.70;99.90;;;;;;5075509;28;20036;-78
2023/10/25 06:19:27;;;;;;;26.08;15.60;;;6.70;99.90;;;;;;5073359;28;20028;-78
2023/10/25 06:21:54;;;;;;;36.10;19.80;;;6.70;99.90;;;;;;5072752;28;20052;-78
2023/10/25 06:24:20;;;;;;;27.00;17.70;;;6.50;99.90;;;;;;5072531;28;20044;-79
2023/10/25 06:26:46;;;;;;;37.10;19.33;;;6.50;99.90;;;;;;5072597;28;20435;-77
2023/10/25 06:29:12;;;;;;;33.13;18.70;;;6.50;99.90;;;;;;5072705;28;20052;-77
2023/10/25 06:31:38;;;;;;;24.70;16.95;;;6.40;99.90;;;;;;5071536;28;20036;-78
2023/10/25 06:34:03;;;;;;;32.67;19.23;;;6.50;99.90;;;;;;5072614;28;20071;-77
2023/10/25 06:36:32;;;;;;;20.55;15.18;;;6.40;99.90;;;;;;5071667;28;20020;-75
2023/10/25 06:38:58;;;;;;;22.88;15.35;;;6.30;99.90;;;;;;5071360;28;20416;-77
2023/10/25 06:41:24;;;;;;;25.73;17.60;;;6.30;99.90;;;;;;5071382;28;20052;-76
2023/10/25 06:43:50;;;;;;;30.67;18.27;;;6.40;99.90;;;;;;5053999;28;20096;-77
2023/10/25 06:46:16;;;;;;;25.67;17.05;;;6.40;99.90;;;;;;5071879;28;20028;-78
2023/10/25 06:48:43;;;;;;;20.02;13.50;;;6.20;99.90;;;;;;5072080;28;20498;-78
2023/10/25 06:51:09;;;;;;;20.63;15.43;;;6.30;99.90;;;;;;5071804;28;20029;-79
2023/10/25 06:53:38;;;;;;;21.92;14.85;;;6.30;99.90;;;;;;5071399;28;20096;-78
2023/10/25 06:56:05;;;;;;;17.77;12.90;;;6.20;99.90;;;;;;5072378;28;20028;-78
2023/10/25 06:58:32;;;;;;;16.80;11.85;;;6.20;99.90;;;;;;5071330;28;20052;-78
2023/10/25 07:00:58;;;;;;;17.65;14.10;;;6.30;99.90;;;;;;5071686;28;20040;-78
2023/10/25 07:03:35;;;;;;;14.00;11.52;;;6.30;99.90;;;;;;5071109;28;20474;-78
2023/10/25 07:06:03;;;;;;;18.30;12.95;;;6.20;99.90;;;;;;5072094;28;20040;-78
2023/10/25 07:08:30;;;;;;;15.60;11.25;;;6.10;99.90;;;;;;5070497;28;20111;-77
2023/10/25 07:10:56;;;;;;;18.73;13.07;;;6.20;99.90;;;;;;5071291;28;20094;-78
2023/10/25 07:13:24;;;;;;;15.93;11.52;;;6.20;99.90;;;;;;5070395;28;20025;-77
2023/10/25 07:15:50;;;;;;;17.88;12.85;;;6.10;99.90;;;;;;5071596;28;20371;-78
2023/10/25 07:18:16;;;;;;;17.75;11.55;;;6.10;99.90;;;;;;5071380;28;20100;-77
2023/10/25 07:20:41;;;;;;;18.05;11.63;;;6.10;99.90;;;;;;5070747;28;20066;-77
2023/10/25 07:23:08;;;;;;;14.70;11.70;;;6.10;99.90;;;;;;5071241;28;20051;-78
2023/10/25 07:25:34;;;;;;;15.85;11.80;;;6.10;99.90;;;;;;5070672;28;20048;-78
2023/10/25 07:28:00;;;;;;;20.80;13.85;;;6.10;99.90;;;;;;5071114;28;20039;-77
2023/10/25 07:30:27;;;;;;;18.60;12.10;;;6.10;99.90;;;;;;5035721;28;20119;-78
2023/10/25 07:32:53;;;;;;;22.77;13.02;;;6.10;99.90;;;;;;5071240;28;20041;-79
2023/10/25 07:35:19;;;;;;;16.20;11.18;;;6.10;99.90;;;;;;5070686;28;20024;-78
2023/10/25 07:37:45;;;;;;;18.00;11.73;;;6.30;99.90;;;;;;5070507;28;20029;-79
2023/10/25 07:40:11;;;;;;;18.63;12.68;;;6.30;99.90;;;;;;5071318;28;20025;-81
2023/10/25 07:42:37;;;;;;;18.70;11.85;;;6.30;99.90;;;;;;5070595;28;20032;-79
2023/10/25 07:45:03;;;;;;;15.68;11.88;;;6.40;99.90;;;;;;5081475;28;20399;-78
2023/10/25 07:47:29;;;;;;;17.20;12.63;;;6.40;99.90;;;;;;5091009;28;20527;-79
2023/10/25 07:49:56;;;;;;;15.80;12.05;;;6.50;99.90;;;;;;5075674;28;20048;-79
2023/10/25 07:52:23;;;;;;;16.15;11.73;;;6.40;99.90;;;;;;5071119;28;20121;-79
2023/10/25 07:54:49;;;;;;;15.93;11.75;;;6.40;99.90;;;;;;5071277;28;20032;-79
2023/10/25 07:57:15;;;;;;;14.85;11.38;;;6.40;99.90;;;;;;5071747;28;20123;-79
2023/10/25 07:59:41;;;;;;;15.57;11.38;;;6.50;99.90;;;;;;5070816;28;20227;-79
2023/10/25 08:02:06;;;;;;;15.93;11.88;;;6.50;99.90;;;;;;5071282;28;20037;-79
2023/10/25 08:04:32;;;;;;;17.08;12.32;;;6.40;99.90;;;;;;5071046;28;20028;-79
2023/10/25 08:06:59;;;;;;;20.75;13.52;;;6.40;99.90;;;;;;5071459;28;20021;-80
2023/10/25 08:09:25;;;;;;;15.95;12.15;;;6.30;99.90;;;;;;5070907;28;20028;-79
2023/10/25 08:11:52;;;;;;;18.40;12.30;;;6.40;99.90;;;;;;5053232;28;20077;-79
2023/10/25 08:14:18;;;;;;;13.40;10.20;;;6.30;99.90;;;;;;5071256;28;20060;-79
2023/10/25 08:16:44;;;;;;;16.45;12.82;;;6.30;99.90;;;;;;5069954;28;20027;-79
2023/10/25 08:19:10;;;;;;;18.70;13.90;;;6.30;99.90;;;;;;5070964;28;20059;-78
2023/10/25 08:21:36;;;;;;;19.58;13.65;;;6.30;99.90;;;;;;5070267;28;20040;-78
2023/10/25 08:24:05;;;;;;;16.13;13.18;;;6.30;99.90;;;;;;5070552;28;20029;-79
2023/10/25 08:26:37;;;;;;;22.85;15.40;;;6.40;99.90;;;;;;5070134;28;20033;-78
2023/10/25 08:29:03;;;;;;;22.73;15.52;;;6.40;99.90;;;;;;5070748;28;20070;-79
2023/10/25 08:31:28;;;;;;;22.55;15.05;;;6.40;99.90;;;;;;5070417;28;20036;-78
2023/10/25 08:33:54;;;;;;;18.10;13.15;;;6.50;99.90;;;;;;5071222;28;20036;-79
2023/10/25 08:36:20;;;;;;;19.40;14.07;;;6.60;99.90;;;;;;5053074;28;20028;-79
2023/10/25 08:38:45;;;;;;;18.20;13.52;;;6.70;99.90;;;;;;5070118;28;20024;-79
2023/10/25 08:41:11;;;;;;;22.15;15.15;;;6.80;99.90;;;;;;5070768;28;20086;-78
2023/10/25 08:43:39;;;;;;;20.42;15.68;;;6.90;99.90;;;;;;5069800;28;20082;-78
2023/10/25 08:46:06;;;;;;;30.88;18.25;;;7.10;99.90;;;;;;5070608;28;20364;-79
2023/10/25 08:48:32;;;;;;;31.75;19.52;;;7.20;99.90;;;;;;5034834;28;20056;-80
2023/10/25 08:51:03;;;;;;;23.65;17.92;;;7.40;99.90;;;;;;5070661;28;20128;-79
2023/10/25 08:53:29;;;;;;;25.55;18.38;;;7.50;99.90;;;;;;5068893;28;20039;-80
2023/10/25 08:55:57;;;;;;;30.63;19.95;;;7.60;99.90;;;;;;5069624;28;20053;-79
2023/10/25 08:58:24;;;;;;;30.80;20.25;;;7.80;99.90;;;;;;5069546;28;20040;-80
2023/10/25 09:00:51;;;;;;;30.33;19.55;;;7.90;99.90;;;;;;5053647;28;20024;-79
2023/10/25 09:03:33;;;;;;;31.25;20.83;;;8.00;99.90;;;;;;5073688;28;20475;-80
2023/10/25 09:06:00;;;;;;;29.90;20.17;;;8.00;99.90;;;;;;5075083;28;20086;-79
2023/10/25 09:08:26;;;;;;;36.30;22.20;;;8.00;99.90;;;;;;5076856;28;20031;-80
2023/10/25 09:10:56;;;;;;;42.15;24.55;;;8.10;99.90;;;;;;5055805;28;20040;-79
2023/10/25 09:13:25;;;;;;;40.25;23.63;;;8.30;99.90;;;;;;5077047;28;20572;-79
2023/10/25 09:15:51;;;;;;;38.33;23.83;;;8.30;99.90;;;;;;5076365;28;20095;-80
2023/10/25 09:18:17;;;;;;;37.47;21.95;;;8.40;99.90;;;;;;5057831;28;20048;-81
2023/10/25 09:20:49;;;;;;;36.05;22.40;;;8.50;99.90;;;;;;5076785;28;20074;-81
2023/10/25 09:23:16;;;;;;;35.70;22.10;;;8.50;99.90;;;;;;5076621;28;20025;-81
2023/10/25 09:25:41;;;;;;;34.25;22.00;;;8.60;99.90;;;;;;5075055;28;20028;-80
2023/10/25 09:28:36;;;;;;;32.28;20.42;;;8.60;99.90;;;;;;5079621;28;20058;-81
2023/10/25 09:31:02;;;;;;;30.55;19.38;;;8.60;99.90;;;;;;5051238;28;20055;-83
2023/10/25 09:33:28;;;;;;;33.45;20.00;;;8.60;99.90;;;;;;5072454;28;20398;-81
2023/10/25 09:35:56;;;;;;;32.25;19.67;;;8.80;99.90;;;;;;5073153;28;20028;-81
2023/10/25 09:38:22;;;;;;;30.10;18.42;;;8.90;99.90;;;;;;5073059;28;20036;-80
2023/10/25 09:40:48;;;;;;;36.65;20.35;;;8.90;99.90;;;;;;5074063;28;20035;-82
2023/10/25 09:43:24;;;;;;;36.50;20.48;;;9.00;99.90;;;;;;5085832;28;20032;-81
2023/10/25 09:45:54;;;;;;;32.97;17.85;;;9.10;99.90;;;;;;5076110;28;20095;-83
2023/10/25 09:48:20;;;;;;;26.88;17.88;;;9.20;99.90;;;;;;5072716;28;20036;-81
2023/10/25 09:51:12;;;;;;;30.23;19.52;;;9.20;99.90;;;;;;5072404;28;20033;-82
2023/10/25 09:53:46;;;;;;;27.25;17.90;;;9.30;99.90;;;;;;5072399;28;20070;-82
2023/10/25 09:56:14;;;;;;;28.52;18.42;;;9.40;99.90;;;;;;5054944;28;20504;-81
2023/10/25 09:58:41;;;;;;;33.08;20.13;;;9.50;99.90;;;;;;5072798;28;20533;-82
2023/10/25 10:01:08;;;;;;;32.28;19.60;;;9.50;99.90;;;;;;5072791;28;20566;-82
2023/10/25 10:03:59;;;;;;;31.05;18.63;;;9.70;99.90;;;;;;5072454;28;20036;-82
2023/10/25 10:06:38;;;;;;;26.13;16.92;;;9.80;99.90;;;;;;5073358;28;20029;-82
2023/10/25 10:09:30;;;;;;;32.53;20.27;;;9.80;99.90;;;;;;5075156;28;20024;-81
2023/10/25 10:12:06;;;;;;;23.73;14.98;;;10.00;99.90;;;;;;5056778;28;20040;-81
2023/10/25 10:14:37;;;;;;;24.60;15.75;;;9.90;99.90;;;;;;5058673;28;20043;-82
2023/10/25 10:17:10;;;;;;;29.90;17.45;;;9.90;99.90;;;;;;5075099;28;20143;-82
2023/10/25 10:19:41;;;;;;;25.33;16.75;;;10.10;99.90;;;;;;5075767;28;20145;-83
2023/10/25 10:22:13;;;;;;;25.23;16.88;;;10.10;99.90;;;;;;5075099;28;20117;-82
2023/10/25 10:24:53;;;;;;;21.38;15.20;;;10.20;99.90;;;;;;5056576;28;20033;-81
2023/10/25 10:27:23;;;;;;;26.15;18.10;;;10.20;99.90;;;;;;5075747;28;20111;-82
2023/10/25 10:29:49;;;;;;;23.33;15.90;;;10.10;99.90;;;;;;5077378;28;20021;-82
2023/10/25 10:32:16;;;;;;;23.98;14.90;;;10.20;99.90;;;;;;5077373;28;20028;-82
2023/10/25 10:34:49;;;;;;;24.95;17.58;;;10.30;99.90;;;;;;5074125;28;20111;-82
2023/10/25 10:37:16;;;;;;;;;;;10.40;99.90;;;;;;5076997;28;20032;-82
2023/10/25 10:39:57;;;;;;;32.45;20.13;;;10.50;99.90;;;;;;5055989;28;19904;-82
2023/10/25 10:42:41;;;;;;;25.83;15.68;;;10.60;99.90;;;;;;5076152;28;20126;-82
2023/10/25 10:45:13;;;;;;;26.05;17.70;;;10.60;99.90;;;;;;5074079;28;20071;-82
2023/10/25 10:47:38;;;;;;;30.57;21.07;;;10.60;99.90;;;;;;5073913;28;20032;-81
2023/10/25 10:50:11;;;;;;;26.25;18.40;;;10.70;99.90;;;;;;5056295;28;20108;-81
2023/10/25 10:52:38;;;;;;;32.05;21.08;;;10.80;99.90;;;;;;5073110;28;20036;-82
2023/10/25 10:55:05;;;;;;;36.42;21.15;;;10.80;99.90;;;;;;5075278;28;20033;-82
2023/10/25 10:57:31;;;;;;;27.15;19.40;;;10.90;99.90;;;;;;5073569;28;20093;-81
2023/10/25 10:59:57;;;;;;;26.17;18.35;;;11.10;99.90;;;;;;5074729;28;20198;-82
2023/10/25 11:02:25;;;;;;;22.25;16.85;;;11.10;99.90;;;;;;5073700;28;20028;-82
2023/10/25 11:04:51;;;;;;;16.02;11.70;;;11.20;99.90;;;;;;5075482;28;20021;-82
2023/10/25 11:07:19;;;;;;;14.65;10.13;;;11.30;99.90;;;;;;5074001;28;20459;-82
2023/10/25 11:09:45;;;;;;;13.90;10.38;;;11.30;99.90;;;;;;5056520;28;20039;-81
2023/10/25 11:12:12;;;;;;;11.07;8.38;;;11.30;99.90;;;;;;5073047;28;20355;-81
2023/10/25 11:14:41;;;;;;;12.73;9.77;;;11.40;99.90;;;;;;5072714;28;20108;-81
2023/10/25 11:17:07;;;;;;;18.77;11.18;;;11.40;99.90;;;;;;5072851;28;20047;-82
2023/10/25 11:19:35;;;;;;;16.65;10.13;;;11.60;99.90;;;;;;5073545;28;20486;-82
2023/10/25 11:22:01;;;;;;;11.75;9.13;;;11.60;99.90;;;;;;5072687;28;20029;-82
2023/10/25 11:24:27;;;;;;;17.08;11.27;;;11.50;99.90;;;;;;5072975;28;20024;-82
2023/10/25 11:26:54;;;;;;;14.63;11.13;;;11.50;99.90;;;;;;5073059;28;20036;-82
2023/10/25 11:29:22;;;;;;;13.77;11.15;;;11.50;99.90;;;;;;5074070;28;20032;-82
2023/10/25 11:31:50;;;;;;;13.10;9.00;;;11.60;99.90;;;;;;5074394;28;20566;-82
2023/10/25 11:34:20;;;;;;;13.75;9.63;;;11.60;99.90;;;;;;5059544;28;20039;-82
2023/10/25 11:36:50;;;;;;;14.07;10.10;;;11.60;99.90;;;;;;5070429;28;20024;-82
2023/10/25 11:39:16;;;;;;;12.18;9.88;;;11.60;99.90;;;;;;5070825;28;20440;-83
2023/10/25 11:41:44;;;;;;;15.50;9.65;;;11.50;99.90;;;;;;5069643;28;20036;-82
2023/10/25 11:44:10;;;;;;;11.75;9.27;;;11.60;99.90;;;;;;5070001;28;20025;-82
2023/10/25 11:46:38;;;;;;;13.88;9.35;;;11.60;99.90;;;;;;5069677;28;20189;-83
2023/10/25 11:49:04;;;;;;;13.63;9.90;;;11.70;99.90;;;;;;5052061;28;20529;-82
2023/10/25 11:51:35;;;;;;;13.63;9.27;;;11.70;99.90;;;;;;5069152;28;20426;-82
2023/10/25 11:54:02;;;;;;;12.68;8.55;;;11.80;99.90;;;;;;5052259;28;20127;-83
2023/10/25 11:56:28;;;;;;;12.13;8.05;;;11.80;99.90;;;;;;5051276;28;20538;-83
2023/10/25 11:58:54;;;;;;;11.70;8.45;;;11.80;99.90;;;;;;5069261;28;20542;-83
2023/10/25 12:01:20;;;;;;;13.88;8.80;;;11.90;99.90;;;;;;5052136;28;20112;-83
2023/10/25 12:03:46;;;;;;;12.23;7.38;;;12.00;99.90;;;;;;5070707;28;20029;-83
2023/10/25 12:06:12;;;;;;;9.57;7.53;;;12.10;99.90;;;;;;5071091;28;20017;-83
2023/10/25 12:08:42;;;;;;;10.07;7.07;;;12.10;99.90;;;;;;5052413;28;20074;-83
2023/10/25 12:11:10;;;;;;;9.70;7.30;;;12.20;99.90;;;;;;5070621;28;20024;-83
2023/10/25 12:13:39;;;;;;;13.40;8.68;;;12.30;99.90;;;;;;5070446;28;20470;-83
2023/10/25 12:16:07;;;;;;;14.98;8.82;;;12.30;99.90;;;;;;5070387;28;20538;-83
2023/10/25 12:18:35;;;;;;;9.85;7.15;;;12.40;99.90;;;;;;5069734;28;20043;-83
2023/10/25 12:21:04;;;;;;;13.07;7.43;;;12.30;99.90;;;;;;5071152;28;20086;-83
2023/10/25 12:23:32;;;;;;;10.52;6.88;;;12.30;99.90;;;;;;5069976;28;20030;-83
2023/10/25 12:25:58;;;;;;;15.85;7.85;;;12.30;99.90;;;;;;5052537;28;20021;-83
2023/10/25 12:28:24;;;;;;;11.00;6.90;;;12.20;99.90;;;;;;5070798;28;20033;-83
2023/10/25 12:30:50;;;;;;;11.80;7.20;;;12.20;99.90;;;;;;5070093;28;20104;-83
2023/10/25 12:33:16;;;;;;;9.15;6.97;;;12.20;99.90;;;;;;5070582;28;20035;-83
2023/10/25 12:35:42;;;;;;;9.85;7.60;;;12.10;99.90;;;;;;5070076;28;20030;-84
2023/10/25 12:38:08;;;;;;;9.55;6.95;;;12.10;99.90;;;;;;5071741;28;20103;-83
2023/10/25 12:40:34;;;;;;;12.30;7.85;;;12.20;99.90;;;;;;5056080;28;20025;-83